sensor_id;sensor_type;location;lat;lon;timestamp;P1;durP1;ratioP1;P2;durP2;ratioP2
5923;SDS011;2987;50.884;14.818;2023-08-31T00:00:54;8.70;;;7.77;;
5923;SDS011;2987;50.884;14.818;2023-08-31T00:03:21;10.53;;;8.13;;
5923;SDS011;2987;50.884;14.818;2023-08-31T00:05:47;10.37;;;7.43;;
5923;SDS011;2987;50.884;14.818;2023-08-31T00:08:14;13.50;;;7.57;;
5923;SDS011;2987;50.884;14.818;2023-08-31T00:10:40;9.97;;;7.33;;
5923;SDS011;2987;50.884;14.818;2023-08-31T00:15:33;13.60;;;7.40;;
5923;SDS011;2987;50.884;14.818;2023-08-31T00:18:01;12.60;;;7.73;;
5923;SDS011;2987;50.884;14.818;2023-08-31T00:20:30;8.00;;;7.27;;
5923;SDS011;2987;50.884;14.818;2023-08-31T00:22:59;7.97;;;7.27;;
5923;SDS011;2987;50.884;14.818;2023-08-31T00:25:25;13.77;;;7.90;;
5923;SDS011;2987;50.884;14.818;2023-08-31T00:27:52;8.30;;;7.30;;
5923;SDS011;2987;50.884;14.818;2023-08-31T00:30:19;9.43;;;7.33;;
5923;SDS011;2987;50.884;14.818;2023-08-31T00:32:45;10.83;;;7.67;;
5923;SDS011;2987;50.884;14.818;2023-08-31T00:35:13;13.23;;;8.43;;
5923;SDS011;2987;50.884;14.818;2023-08-31T00:37:39;9.63;;;7.63;;
5923;SDS011;2987;50.884;14.818;2023-08-31T00:40:05;10.70;;;8.07;;
5923;SDS011;2987;50.884;14.818;2023-08-31T00:42:35;8.27;;;7.47;;
5923;SDS011;2987;50.884;14.818;2023-08-31T00:45:04;8.23;;;7.43;;
5923;SDS011;2987;50.884;14.818;2023-08-31T00:47:31;7.73;;;6.93;;
5923;SDS011;2987;50.884;14.818;2023-08-31T00:49:58;8.80;;;7.27;;
5923;SDS011;2987;50.884;14.818;2023-08-31T00:52:29;7.97;;;7.17;;
5923;SDS011;2987;50.884;14.818;2023-08-31T00:54:55;8.37;;;7.47;;
5923;SDS011;2987;50.884;14.818;2023-08-31T00:57:23;8.23;;;7.43;;
5923;SDS011;2987;50.884;14.818;2023-08-31T00:59:51;10.57;;;8.37;;
5923;SDS011;2987;50.884;14.818;2023-08-31T01:02:29;10.17;;;8.40;;
5923;SDS011;2987;50.884;14.818;2023-08-31T01:08:29;16.87;;;8.30;;
5923;SDS011;2987;50.884;14.818;2023-08-31T01:11:21;10.13;;;8.50;;
5923;SDS011;2987;50.884;14.818;2023-08-31T01:14:02;8.53;;;7.63;;
5923;SDS011;2987;50.884;14.818;2023-08-31T01:16:37;12.00;;;7.90;;
5923;SDS011;2987;50.884;14.818;2023-08-31T01:19:13;8.70;;;7.80;;
5923;SDS011;2987;50.884;14.818;2023-08-31T01:22:05;8.57;;;7.40;;
5923;SDS011;2987;50.884;14.818;2023-08-31T01:24:37;10.87;;;8.83;;
5923;SDS011;2987;50.884;14.818;2023-08-31T01:27:04;10.00;;;8.90;;
5923;SDS011;2987;50.884;14.818;2023-08-31T01:29:31;10.57;;;9.40;;
5923;SDS011;2987;50.884;14.818;2023-08-31T01:31:58;12.77;;;10.03;;
5923;SDS011;2987;50.884;14.818;2023-08-31T01:34:24;11.97;;;8.80;;
5923;SDS011;2987;50.884;14.818;2023-08-31T01:36:52;9.47;;;8.53;;
5923;SDS011;2987;50.884;14.818;2023-08-31T01:39:28;9.17;;;8.27;;
5923;SDS011;2987;50.884;14.818;2023-08-31T01:42:02;10.20;;;8.10;;
5923;SDS011;2987;50.884;14.818;2023-08-31T01:44:31;9.20;;;7.97;;
5923;SDS011;2987;50.884;14.818;2023-08-31T01:47:02;9.93;;;8.20;;
5923;SDS011;2987;50.884;14.818;2023-08-31T01:49:39;8.80;;;7.70;;
5923;SDS011;2987;50.884;14.818;2023-08-31T01:52:05;25.87;;;8.83;;
5923;SDS011;2987;50.884;14.818;2023-08-31T01:54:32;11.07;;;7.77;;
5923;SDS011;2987;50.884;14.818;2023-08-31T01:56:59;7.53;;;6.83;;
5923;SDS011;2987;50.884;14.818;2023-08-31T01:59:26;9.57;;;8.67;;
5923;SDS011;2987;50.884;14.818;2023-08-31T02:01:52;9.23;;;7.80;;
5923;SDS011;2987;50.884;14.818;2023-08-31T02:04:18;8.50;;;6.93;;
5923;SDS011;2987;50.884;14.818;2023-08-31T02:06:44;17.33;;;7.97;;
5923;SDS011;2987;50.884;14.818;2023-08-31T02:09:10;8.27;;;7.47;;
5923;SDS011;2987;50.884;14.818;2023-08-31T02:11:38;8.50;;;7.63;;
5923;SDS011;2987;50.884;14.818;2023-08-31T02:14:05;9.07;;;7.53;;
5923;SDS011;2987;50.884;14.818;2023-08-31T02:16:31;9.23;;;8.37;;
5923;SDS011;2987;50.884;14.818;2023-08-31T02:18:58;8.73;;;7.93;;
5923;SDS011;2987;50.884;14.818;2023-08-31T02:21:24;8.53;;;7.60;;
5923;SDS011;2987;50.884;14.818;2023-08-31T02:23:53;10.73;;;7.53;;
5923;SDS011;2987;50.884;14.818;2023-08-31T02:26:20;7.53;;;6.93;;
5923;SDS011;2987;50.884;14.818;2023-08-31T02:28:47;10.17;;;6.40;;
5923;SDS011;2987;50.884;14.818;2023-08-31T02:31:13;8.23;;;7.43;;
5923;SDS011;2987;50.884;14.818;2023-08-31T02:33:40;10.23;;;6.70;;
5923;SDS011;2987;50.884;14.818;2023-08-31T02:36:06;8.43;;;6.97;;
5923;SDS011;2987;50.884;14.818;2023-08-31T02:38:32;9.53;;;8.17;;
5923;SDS011;2987;50.884;14.818;2023-08-31T02:40:58;8.67;;;7.87;;
5923;SDS011;2987;50.884;14.818;2023-08-31T02:43:24;10.60;;;7.87;;
5923;SDS011;2987;50.884;14.818;2023-08-31T02:45:58;7.90;;;7.10;;
5923;SDS011;2987;50.884;14.818;2023-08-31T02:48:26;8.20;;;7.40;;
5923;SDS011;2987;50.884;14.818;2023-08-31T02:50:53;9.07;;;8.13;;
5923;SDS011;2987;50.884;14.818;2023-08-31T02:53:19;11.50;;;9.60;;
5923;SDS011;2987;50.884;14.818;2023-08-31T02:55:45;12.00;;;10.13;;
5923;SDS011;2987;50.884;14.818;2023-08-31T02:58:12;12.60;;;11.40;;
5923;SDS011;2987;50.884;14.818;2023-08-31T03:00:38;15.17;;;12.77;;
5923;SDS011;2987;50.884;14.818;2023-08-31T03:03:08;15.07;;;13.27;;
5923;SDS011;2987;50.884;14.818;2023-08-31T03:05:34;14.50;;;12.40;;
5923;SDS011;2987;50.884;14.818;2023-08-31T03:08:00;13.93;;;12.43;;
5923;SDS011;2987;50.884;14.818;2023-08-31T03:10:26;13.83;;;12.27;;
5923;SDS011;2987;50.884;14.818;2023-08-31T03:12:53;14.57;;;12.47;;
5923;SDS011;2987;50.884;14.818;2023-08-31T03:15:18;14.03;;;12.63;;
5923;SDS011;2987;50.884;14.818;2023-08-31T03:17:44;14.27;;;12.77;;
5923;SDS011;2987;50.884;14.818;2023-08-31T03:20:10;14.13;;;12.47;;
5923;SDS011;2987;50.884;14.818;2023-08-31T03:22:36;14.63;;;12.97;;
5923;SDS011;2987;50.884;14.818;2023-08-31T03:25:02;13.43;;;11.63;;
5923;SDS011;2987;50.884;14.818;2023-08-31T03:27:29;13.87;;;12.57;;
5923;SDS011;2987;50.884;14.818;2023-08-31T03:29:55;14.13;;;12.83;;
5923;SDS011;2987;50.884;14.818;2023-08-31T03:32:22;15.00;;;12.77;;
5923;SDS011;2987;50.884;14.818;2023-08-31T03:34:48;14.53;;;13.03;;
5923;SDS011;2987;50.884;14.818;2023-08-31T03:37:15;14.43;;;12.90;;
5923;SDS011;2987;50.884;14.818;2023-08-31T03:39:41;14.90;;;13.30;;
5923;SDS011;2987;50.884;14.818;2023-08-31T03:42:08;15.97;;;13.30;;
5923;SDS011;2987;50.884;14.818;2023-08-31T03:44:35;15.67;;;14.07;;
5923;SDS011;2987;50.884;14.818;2023-08-31T03:47:04;14.00;;;12.43;;
5923;SDS011;2987;50.884;14.818;2023-08-31T03:49:30;14.57;;;12.90;;
5923;SDS011;2987;50.884;14.818;2023-08-31T03:51:57;13.27;;;11.90;;
5923;SDS011;2987;50.884;14.818;2023-08-31T03:54:24;13.97;;;12.33;;
5923;SDS011;2987;50.884;14.818;2023-08-31T03:56:51;14.23;;;12.73;;
5923;SDS011;2987;50.884;14.818;2023-08-31T03:59:17;15.57;;;11.83;;
5923;SDS011;2987;50.884;14.818;2023-08-31T04:01:43;13.97;;;12.23;;
5923;SDS011;2987;50.884;14.818;2023-08-31T04:04:11;13.53;;;12.27;;
5923;SDS011;2987;50.884;14.818;2023-08-31T04:06:37;13.73;;;12.07;;
5923;SDS011;2987;50.884;14.818;2023-08-31T04:09:05;13.30;;;11.90;;
5923;SDS011;2987;50.884;14.818;2023-08-31T04:11:33;13.10;;;11.73;;
5923;SDS011;2987;50.884;14.818;2023-08-31T04:13:59;14.27;;;12.77;;
5923;SDS011;2987;50.884;14.818;2023-08-31T04:16:25;13.40;;;12.20;;
5923;SDS011;2987;50.884;14.818;2023-08-31T04:18:52;27.43;;;11.77;;
5923;SDS011;2987;50.884;14.818;2023-08-31T04:21:18;15.73;;;11.47;;
5923;SDS011;2987;50.884;14.818;2023-08-31T04:23:44;12.43;;;11.13;;
5923;SDS011;2987;50.884;14.818;2023-08-31T04:26:11;13.90;;;11.30;;
5923;SDS011;2987;50.884;14.818;2023-08-31T04:28:39;11.87;;;10.67;;
5923;SDS011;2987;50.884;14.818;2023-08-31T04:31:06;12.83;;;11.63;;
5923;SDS011;2987;50.884;14.818;2023-08-31T04:33:33;12.37;;;11.00;;
5923;SDS011;2987;50.884;14.818;2023-08-31T04:36:00;13.10;;;11.60;;
5923;SDS011;2987;50.884;14.818;2023-08-31T04:38:26;13.97;;;11.47;;
5923;SDS011;2987;50.884;14.818;2023-08-31T04:40:54;12.50;;;11.30;;
5923;SDS011;2987;50.884;14.818;2023-08-31T04:43:23;11.27;;;10.20;;
5923;SDS011;2987;50.884;14.818;2023-08-31T04:45:50;11.80;;;10.70;;
5923;SDS011;2987;50.884;14.818;2023-08-31T04:48:17;12.90;;;10.50;;
5923;SDS011;2987;50.884;14.818;2023-08-31T04:50:43;12.23;;;10.93;;
5923;SDS011;2987;50.884;14.818;2023-08-31T04:53:09;10.90;;;9.90;;
5923;SDS011;2987;50.884;14.818;2023-08-31T04:55:36;11.60;;;9.93;;
5923;SDS011;2987;50.884;14.818;2023-08-31T04:58:03;11.97;;;10.70;;
5923;SDS011;2987;50.884;14.818;2023-08-31T05:00:29;15.93;;;11.70;;
5923;SDS011;2987;50.884;14.818;2023-08-31T05:02:55;12.23;;;11.00;;
5923;SDS011;2987;50.884;14.818;2023-08-31T05:05:22;12.50;;;11.03;;
5923;SDS011;2987;50.884;14.818;2023-08-31T05:07:48;13.00;;;11.70;;
5923;SDS011;2987;50.884;14.818;2023-08-31T05:10:14;12.60;;;11.40;;
5923;SDS011;2987;50.884;14.818;2023-08-31T05:12:40;12.70;;;11.40;;
5923;SDS011;2987;50.884;14.818;2023-08-31T05:15:06;13.47;;;12.17;;
5923;SDS011;2987;50.884;14.818;2023-08-31T05:17:33;12.50;;;10.83;;
5923;SDS011;2987;50.884;14.818;2023-08-31T05:19:59;13.10;;;11.90;;
5923;SDS011;2987;50.884;14.818;2023-08-31T05:22:25;13.30;;;11.17;;
5923;SDS011;2987;50.884;14.818;2023-08-31T05:24:51;12.80;;;11.63;;
5923;SDS011;2987;50.884;14.818;2023-08-31T05:27:17;14.33;;;12.33;;
5923;SDS011;2987;50.884;14.818;2023-08-31T05:29:43;15.27;;;12.47;;
5923;SDS011;2987;50.884;14.818;2023-08-31T05:32:09;13.33;;;12.13;;
5923;SDS011;2987;50.884;14.818;2023-08-31T05:34:35;13.10;;;11.80;;
5923;SDS011;2987;50.884;14.818;2023-08-31T05:37:05;14.37;;;12.40;;
5923;SDS011;2987;50.884;14.818;2023-08-31T05:39:31;13.50;;;12.30;;
5923;SDS011;2987;50.884;14.818;2023-08-31T05:41:57;13.97;;;12.57;;
5923;SDS011;2987;50.884;14.818;2023-08-31T05:44:25;13.83;;;12.13;;
5923;SDS011;2987;50.884;14.818;2023-08-31T05:49:16;13.87;;;12.40;;
5923;SDS011;2987;50.884;14.818;2023-08-31T05:51:42;15.10;;;13.60;;
5923;SDS011;2987;50.884;14.818;2023-08-31T05:54:08;14.50;;;13.00;;
5923;SDS011;2987;50.884;14.818;2023-08-31T05:56:37;14.50;;;13.20;;
5923;SDS011;2987;50.884;14.818;2023-08-31T05:59:05;14.10;;;12.30;;
5923;SDS011;2987;50.884;14.818;2023-08-31T06:01:32;14.57;;;12.50;;
5923;SDS011;2987;50.884;14.818;2023-08-31T06:03:59;14.33;;;12.93;;
5923;SDS011;2987;50.884;14.818;2023-08-31T06:06:25;14.37;;;13.07;;
5923;SDS011;2987;50.884;14.818;2023-08-31T06:08:51;14.93;;;13.43;;
5923;SDS011;2987;50.884;14.818;2023-08-31T06:11:19;14.03;;;12.63;;
5923;SDS011;2987;50.884;14.818;2023-08-31T06:13:45;14.80;;;13.30;;
5923;SDS011;2987;50.884;14.818;2023-08-31T06:16:11;18.03;;;13.07;;
5923;SDS011;2987;50.884;14.818;2023-08-31T06:18:37;14.17;;;12.87;;
5923;SDS011;2987;50.884;14.818;2023-08-31T06:21:04;14.23;;;12.77;;
5923;SDS011;2987;50.884;14.818;2023-08-31T06:23:30;13.20;;;12.00;;
5923;SDS011;2987;50.884;14.818;2023-08-31T06:25:56;13.20;;;12.00;;
5923;SDS011;2987;50.884;14.818;2023-08-31T06:28:22;14.57;;;12.33;;
5923;SDS011;2987;50.884;14.818;2023-08-31T06:30:48;14.73;;;11.67;;
5923;SDS011;2987;50.884;14.818;2023-08-31T06:33:15;12.47;;;11.37;;
5923;SDS011;2987;50.884;14.818;2023-08-31T06:35:45;12.43;;;11.33;;
5923;SDS011;2987;50.884;14.818;2023-08-31T06:38:13;11.67;;;10.63;;
5923;SDS011;2987;50.884;14.818;2023-08-31T06:40:41;10.90;;;9.90;;
5923;SDS011;2987;50.884;14.818;2023-08-31T06:43:09;10.60;;;9.60;;
5923;SDS011;2987;50.884;14.818;2023-08-31T06:45:35;12.17;;;10.97;;
5923;SDS011;2987;50.884;14.818;2023-08-31T06:48:01;13.00;;;10.87;;
5923;SDS011;2987;50.884;14.818;2023-08-31T06:50:28;12.10;;;10.80;;
5923;SDS011;2987;50.884;14.818;2023-08-31T06:52:54;13.10;;;11.80;;
5923;SDS011;2987;50.884;14.818;2023-08-31T06:55:20;11.53;;;10.47;;
5923;SDS011;2987;50.884;14.818;2023-08-31T06:57:46;12.87;;;11.67;;
5923;SDS011;2987;50.884;14.818;2023-08-31T07:00:12;12.07;;;10.23;;
5923;SDS011;2987;50.884;14.818;2023-08-31T07:02:39;12.73;;;9.77;;
5923;SDS011;2987;50.884;14.818;2023-08-31T07:05:07;10.20;;;9.10;;
5923;SDS011;2987;50.884;14.818;2023-08-31T07:07:36;8.80;;;7.90;;
5923;SDS011;2987;50.884;14.818;2023-08-31T07:10:02;9.10;;;7.80;;
5923;SDS011;2987;50.884;14.818;2023-08-31T07:12:29;8.37;;;7.57;;
5923;SDS011;2987;50.884;14.818;2023-08-31T07:14:55;8.03;;;7.33;;
5923;SDS011;2987;50.884;14.818;2023-08-31T07:17:21;7.33;;;6.60;;
5923;SDS011;2987;50.884;14.818;2023-08-31T07:19:47;8.03;;;6.70;;
5923;SDS011;2987;50.884;14.818;2023-08-31T07:22:13;7.90;;;6.67;;
5923;SDS011;2987;50.884;14.818;2023-08-31T07:24:39;7.17;;;6.47;;
5923;SDS011;2987;50.884;14.818;2023-08-31T07:27:05;6.50;;;6.00;;
5923;SDS011;2987;50.884;14.818;2023-08-31T07:29:31;6.37;;;5.77;;
5923;SDS011;2987;50.884;14.818;2023-08-31T07:31:57;7.07;;;5.73;;
5923;SDS011;2987;50.884;14.818;2023-08-31T07:34:24;6.93;;;6.23;;
5923;SDS011;2987;50.884;14.818;2023-08-31T07:36:50;5.13;;;4.63;;
5923;SDS011;2987;50.884;14.818;2023-08-31T07:39:16;4.57;;;3.97;;
5923;SDS011;2987;50.884;14.818;2023-08-31T07:41:43;5.17;;;4.43;;
5923;SDS011;2987;50.884;14.818;2023-08-31T07:44:10;5.23;;;4.00;;
5923;SDS011;2987;50.884;14.818;2023-08-31T07:46:36;4.80;;;3.73;;
5923;SDS011;2987;50.884;14.818;2023-08-31T07:49:01;4.43;;;3.70;;
5923;SDS011;2987;50.884;14.818;2023-08-31T07:51:29;7.90;;;3.80;;
5923;SDS011;2987;50.884;14.818;2023-08-31T07:56:22;10.33;;;3.87;;
5923;SDS011;2987;50.884;14.818;2023-08-31T07:58:49;5.17;;;3.57;;
5923;SDS011;2987;50.884;14.818;2023-08-31T08:01:16;7.07;;;3.90;;
5923;SDS011;2987;50.884;14.818;2023-08-31T08:03:43;4.97;;;4.30;;
5923;SDS011;2987;50.884;14.818;2023-08-31T08:06:09;7.17;;;4.50;;
5923;SDS011;2987;50.884;14.818;2023-08-31T08:08:35;4.27;;;3.20;;
5923;SDS011;2987;50.884;14.818;2023-08-31T08:11:01;5.27;;;3.30;;
5923;SDS011;2987;50.884;14.818;2023-08-31T08:13:28;5.70;;;3.30;;
5923;SDS011;2987;50.884;14.818;2023-08-31T08:15:54;4.70;;;3.17;;
5923;SDS011;2987;50.884;14.818;2023-08-31T08:18:20;3.87;;;3.10;;
5923;SDS011;2987;50.884;14.818;2023-08-31T08:20:48;4.00;;;2.80;;
5923;SDS011;2987;50.884;14.818;2023-08-31T08:23:16;3.80;;;3.07;;
5923;SDS011;2987;50.884;14.818;2023-08-31T08:25:42;5.43;;;3.20;;
5923;SDS011;2987;50.884;14.818;2023-08-31T08:28:09;3.23;;;2.70;;
5923;SDS011;2987;50.884;14.818;2023-08-31T08:30:35;2.50;;;2.30;;
5923;SDS011;2987;50.884;14.818;2023-08-31T08:33:01;4.60;;;2.17;;
5923;SDS011;2987;50.884;14.818;2023-08-31T08:35:28;5.30;;;2.40;;
5923;SDS011;2987;50.884;14.818;2023-08-31T08:37:54;3.60;;;2.40;;
5923;SDS011;2987;50.884;14.818;2023-08-31T08:40:20;2.47;;;2.27;;
5923;SDS011;2987;50.884;14.818;2023-08-31T08:42:46;5.50;;;2.73;;
5923;SDS011;2987;50.884;14.818;2023-08-31T08:45:13;4.47;;;2.63;;
5923;SDS011;2987;50.884;14.818;2023-08-31T08:47:43;2.90;;;2.40;;
5923;SDS011;2987;50.884;14.818;2023-08-31T08:50:10;4.87;;;2.60;;
5923;SDS011;2987;50.884;14.818;2023-08-31T08:52:39;3.50;;;2.60;;
5923;SDS011;2987;50.884;14.818;2023-08-31T08:55:06;2.40;;;2.17;;
5923;SDS011;2987;50.884;14.818;2023-08-31T08:57:33;2.67;;;2.40;;
5923;SDS011;2987;50.884;14.818;2023-08-31T09:00:00;4.57;;;2.33;;
5923;SDS011;2987;50.884;14.818;2023-08-31T09:02:26;3.10;;;2.33;;
5923;SDS011;2987;50.884;14.818;2023-08-31T09:04:52;4.70;;;2.83;;
5923;SDS011;2987;50.884;14.818;2023-08-31T09:07:20;2.77;;;2.50;;
5923;SDS011;2987;50.884;14.818;2023-08-31T09:09:49;2.83;;;2.37;;
5923;SDS011;2987;50.884;14.818;2023-08-31T09:12:16;3.13;;;2.30;;
5923;SDS011;2987;50.884;14.818;2023-08-31T09:14:43;2.40;;;2.13;;
5923;SDS011;2987;50.884;14.818;2023-08-31T09:17:09;2.70;;;2.50;;
5923;SDS011;2987;50.884;14.818;2023-08-31T09:19:35;3.57;;;2.10;;
5923;SDS011;2987;50.884;14.818;2023-08-31T09:22:01;4.13;;;2.30;;
5923;SDS011;2987;50.884;14.818;2023-08-31T09:24:28;3.37;;;2.30;;
5923;SDS011;2987;50.884;14.818;2023-08-31T09:26:57;2.93;;;2.30;;
5923;SDS011;2987;50.884;14.818;2023-08-31T09:29:24;3.27;;;2.13;;
5923;SDS011;2987;50.884;14.818;2023-08-31T09:31:50;2.57;;;1.90;;
5923;SDS011;2987;50.884;14.818;2023-08-31T09:34:17;9.40;;;2.33;;
5923;SDS011;2987;50.884;14.818;2023-08-31T09:36:44;3.30;;;1.87;;
5923;SDS011;2987;50.884;14.818;2023-08-31T09:39:12;4.50;;;2.17;;
5923;SDS011;2987;50.884;14.818;2023-08-31T09:41:54;4.93;;;2.07;;
5923;SDS011;2987;50.884;14.818;2023-08-31T09:44:22;2.33;;;1.80;;
5923;SDS011;2987;50.884;14.818;2023-08-31T09:46:48;4.67;;;2.00;;
5923;SDS011;2987;50.884;14.818;2023-08-31T09:49:15;3.80;;;2.00;;
5923;SDS011;2987;50.884;14.818;2023-08-31T09:51:45;3.63;;;2.17;;
5923;SDS011;2987;50.884;14.818;2023-08-31T09:54:14;3.80;;;2.00;;
5923;SDS011;2987;50.884;14.818;2023-08-31T09:56:43;2.93;;;1.90;;
5923;SDS011;2987;50.884;14.818;2023-08-31T09:59:10;3.17;;;1.73;;
5923;SDS011;2987;50.884;14.818;2023-08-31T10:01:38;2.23;;;1.70;;
5923;SDS011;2987;50.884;14.818;2023-08-31T10:04:06;2.37;;;1.77;;
5923;SDS011;2987;50.884;14.818;2023-08-31T10:06:35;3.40;;;1.90;;
5923;SDS011;2987;50.884;14.818;2023-08-31T10:09:03;2.90;;;1.90;;
5923;SDS011;2987;50.884;14.818;2023-08-31T10:11:30;3.47;;;2.27;;
5923;SDS011;2987;50.884;14.818;2023-08-31T10:13:57;3.00;;;2.00;;
5923;SDS011;2987;50.884;14.818;2023-08-31T10:16:25;2.90;;;2.10;;
5923;SDS011;2987;50.884;14.818;2023-08-31T10:18:53;3.00;;;1.90;;
5923;SDS011;2987;50.884;14.818;2023-08-31T10:21:21;2.57;;;2.10;;
5923;SDS011;2987;50.884;14.818;2023-08-31T10:23:48;3.30;;;2.10;;
5923;SDS011;2987;50.884;14.818;2023-08-31T10:26:31;2.03;;;1.60;;
5923;SDS011;2987;50.884;14.818;2023-08-31T10:28:58;4.63;;;1.90;;
5923;SDS011;2987;50.884;14.818;2023-08-31T10:31:29;2.30;;;2.10;;
5923;SDS011;2987;50.884;14.818;2023-08-31T10:33:58;1.87;;;1.50;;
5923;SDS011;2987;50.884;14.818;2023-08-31T10:36:45;8.10;;;1.90;;
5923;SDS011;2987;50.884;14.818;2023-08-31T10:41:39;3.37;;;1.80;;
5923;SDS011;2987;50.884;14.818;2023-08-31T10:44:21;2.33;;;1.90;;
5923;SDS011;2987;50.884;14.818;2023-08-31T10:46:50;3.07;;;2.10;;
5923;SDS011;2987;50.884;14.818;2023-08-31T10:49:18;3.43;;;1.90;;
5923;SDS011;2987;50.884;14.818;2023-08-31T10:51:48;4.00;;;1.80;;
5923;SDS011;2987;50.884;14.818;2023-08-31T10:54:20;1.87;;;1.77;;
5923;SDS011;2987;50.884;14.818;2023-08-31T10:57:04;1.63;;;1.50;;
5923;SDS011;2987;50.884;14.818;2023-08-31T10:59:48;1.70;;;1.60;;
5923;SDS011;2987;50.884;14.818;2023-08-31T11:05:09;1.80;;;1.50;;
5923;SDS011;2987;50.884;14.818;2023-08-31T11:07:41;2.03;;;1.60;;
5923;SDS011;2987;50.884;14.818;2023-08-31T11:10:24;2.50;;;1.53;;
5923;SDS011;2987;50.884;14.818;2023-08-31T11:12:53;2.93;;;1.60;;
5923;SDS011;2987;50.884;14.818;2023-08-31T11:15:22;3.57;;;1.40;;
5923;SDS011;2987;50.884;14.818;2023-08-31T11:17:51;2.97;;;1.30;;
5923;SDS011;2987;50.884;14.818;2023-08-31T11:20:20;1.50;;;1.40;;
5923;SDS011;2987;50.884;14.818;2023-08-31T11:22:48;3.27;;;1.60;;
5923;SDS011;2987;50.884;14.818;2023-08-31T11:25:16;2.23;;;1.70;;
5923;SDS011;2987;50.884;14.818;2023-08-31T11:27:52;1.90;;;1.47;;
5923;SDS011;2987;50.884;14.818;2023-08-31T11:30:20;2.20;;;1.37;;
5923;SDS011;2987;50.884;14.818;2023-08-31T11:32:47;1.80;;;1.27;;
5923;SDS011;2987;50.884;14.818;2023-08-31T11:35:15;3.73;;;1.27;;
5923;SDS011;2987;50.884;14.818;2023-08-31T11:37:43;1.80;;;1.30;;
5923;SDS011;2987;50.884;14.818;2023-08-31T11:40:11;2.83;;;1.40;;
5923;SDS011;2987;50.884;14.818;2023-08-31T11:42:40;3.63;;;1.60;;
5923;SDS011;2987;50.884;14.818;2023-08-31T11:45:06;2.17;;;1.30;;
5923;SDS011;2987;50.884;14.818;2023-08-31T11:47:35;2.50;;;1.37;;
5923;SDS011;2987;50.884;14.818;2023-08-31T11:50:01;1.47;;;1.30;;
5923;SDS011;2987;50.884;14.818;2023-08-31T11:52:30;3.10;;;1.40;;
5923;SDS011;2987;50.884;14.818;2023-08-31T11:54:57;2.03;;;1.20;;
5923;SDS011;2987;50.884;14.818;2023-08-31T11:57:26;1.20;;;1.20;;
5923;SDS011;2987;50.884;14.818;2023-08-31T11:59:54;2.97;;;1.40;;
5923;SDS011;2987;50.884;14.818;2023-08-31T12:02:22;1.30;;;1.20;;
5923;SDS011;2987;50.884;14.818;2023-08-31T12:04:48;2.90;;;1.13;;
5923;SDS011;2987;50.884;14.818;2023-08-31T12:07:16;3.80;;;1.80;;
5923;SDS011;2987;50.884;14.818;2023-08-31T12:09:44;2.50;;;1.50;;
5923;SDS011;2987;50.884;14.818;2023-08-31T12:12:13;1.77;;;1.00;;
5923;SDS011;2987;50.884;14.818;2023-08-31T12:14:43;4.17;;;1.20;;
5923;SDS011;2987;50.884;14.818;2023-08-31T12:17:09;1.47;;;1.20;;
5923;SDS011;2987;50.884;14.818;2023-08-31T12:19:37;1.53;;;1.10;;
5923;SDS011;2987;50.884;14.818;2023-08-31T12:22:05;2.13;;;1.00;;
5923;SDS011;2987;50.884;14.818;2023-08-31T12:24:38;2.63;;;1.20;;
5923;SDS011;2987;50.884;14.818;2023-08-31T12:27:05;1.57;;;1.10;;
5923;SDS011;2987;50.884;14.818;2023-08-31T12:29:32;0.90;;;0.90;;
5923;SDS011;2987;50.884;14.818;2023-08-31T12:31:58;3.70;;;1.10;;
5923;SDS011;2987;50.884;14.818;2023-08-31T12:34:24;7.07;;;1.07;;
5923;SDS011;2987;50.884;14.818;2023-08-31T12:36:51;1.73;;;1.00;;
5923;SDS011;2987;50.884;14.818;2023-08-31T12:39:18;1.67;;;1.13;;
5923;SDS011;2987;50.884;14.818;2023-08-31T12:41:44;3.73;;;1.40;;
5923;SDS011;2987;50.884;14.818;2023-08-31T12:44:10;5.47;;;1.60;;
5923;SDS011;2987;50.884;14.818;2023-08-31T12:46:36;1.67;;;1.07;;
5923;SDS011;2987;50.884;14.818;2023-08-31T12:49:02;2.83;;;1.27;;
5923;SDS011;2987;50.884;14.818;2023-08-31T12:51:29;1.53;;;1.03;;
5923;SDS011;2987;50.884;14.818;2023-08-31T12:53:56;1.07;;;1.07;;
5923;SDS011;2987;50.884;14.818;2023-08-31T12:57:00;2.27;;;1.00;;
5923;SDS011;2987;50.884;14.818;2023-08-31T12:59:26;2.20;;;1.13;;
5923;SDS011;2987;50.884;14.818;2023-08-31T13:01:52;1.50;;;1.00;;
5923;SDS011;2987;50.884;14.818;2023-08-31T13:04:18;4.87;;;1.60;;
5923;SDS011;2987;50.884;14.818;2023-08-31T13:06:44;2.90;;;1.30;;
5923;SDS011;2987;50.884;14.818;2023-08-31T13:09:10;4.63;;;1.20;;
5923;SDS011;2987;50.884;14.818;2023-08-31T13:11:36;1.77;;;1.43;;
5923;SDS011;2987;50.884;14.818;2023-08-31T13:14:02;2.73;;;1.37;;
5923;SDS011;2987;50.884;14.818;2023-08-31T13:16:28;2.37;;;1.37;;
5923;SDS011;2987;50.884;14.818;2023-08-31T13:18:54;14.80;;;2.50;;
5923;SDS011;2987;50.884;14.818;2023-08-31T13:21:20;5.23;;;2.13;;
5923;SDS011;2987;50.884;14.818;2023-08-31T13:23:46;1.93;;;1.60;;
5923;SDS011;2987;50.884;14.818;2023-08-31T13:26:13;4.27;;;1.53;;
5923;SDS011;2987;50.884;14.818;2023-08-31T13:28:39;2.07;;;1.47;;
5923;SDS011;2987;50.884;14.818;2023-08-31T13:31:07;3.97;;;2.03;;
5923;SDS011;2987;50.884;14.818;2023-08-31T13:33:33;3.47;;;1.80;;
5923;SDS011;2987;50.884;14.818;2023-08-31T13:35:59;2.93;;;2.10;;
5923;SDS011;2987;50.884;14.818;2023-08-31T13:38:26;4.47;;;1.80;;
5923;SDS011;2987;50.884;14.818;2023-08-31T13:40:55;2.53;;;1.47;;
5923;SDS011;2987;50.884;14.818;2023-08-31T13:43:22;2.60;;;1.53;;
5923;SDS011;2987;50.884;14.818;2023-08-31T13:45:49;2.00;;;1.40;;
5923;SDS011;2987;50.884;14.818;2023-08-31T13:48:16;1.90;;;1.20;;
5923;SDS011;2987;50.884;14.818;2023-08-31T13:50:42;3.23;;;1.67;;
5923;SDS011;2987;50.884;14.818;2023-08-31T13:53:08;3.27;;;1.33;;
5923;SDS011;2987;50.884;14.818;2023-08-31T13:55:35;1.57;;;1.47;;
5923;SDS011;2987;50.884;14.818;2023-08-31T13:58:05;1.67;;;1.50;;
5923;SDS011;2987;50.884;14.818;2023-08-31T14:00:33;2.63;;;1.70;;
5923;SDS011;2987;50.884;14.818;2023-08-31T14:03:00;4.00;;;1.73;;
5923;SDS011;2987;50.884;14.818;2023-08-31T14:05:29;1.93;;;1.80;;
5923;SDS011;2987;50.884;14.818;2023-08-31T14:07:55;3.70;;;1.40;;
5923;SDS011;2987;50.884;14.818;2023-08-31T14:10:24;3.87;;;1.70;;
5923;SDS011;2987;50.884;14.818;2023-08-31T14:12:50;2.63;;;1.50;;
5923;SDS011;2987;50.884;14.818;2023-08-31T14:15:16;2.73;;;1.50;;
5923;SDS011;2987;50.884;14.818;2023-08-31T14:17:42;2.43;;;1.73;;
5923;SDS011;2987;50.884;14.818;2023-08-31T14:20:08;2.90;;;1.67;;
5923;SDS011;2987;50.884;14.818;2023-08-31T14:22:37;1.47;;;1.37;;
5923;SDS011;2987;50.884;14.818;2023-08-31T14:25:09;2.03;;;1.73;;
5923;SDS011;2987;50.884;14.818;2023-08-31T14:27:36;3.10;;;1.60;;
5923;SDS011;2987;50.884;14.818;2023-08-31T14:30:02;2.03;;;1.50;;
5923;SDS011;2987;50.884;14.818;2023-08-31T14:34:56;2.87;;;1.73;;
5923;SDS011;2987;50.884;14.818;2023-08-31T14:37:22;2.27;;;1.60;;
5923;SDS011;2987;50.884;14.818;2023-08-31T14:39:48;2.17;;;1.70;;
5923;SDS011;2987;50.884;14.818;2023-08-31T14:42:14;2.87;;;1.73;;
5923;SDS011;2987;50.884;14.818;2023-08-31T14:44:43;2.50;;;2.00;;
5923;SDS011;2987;50.884;14.818;2023-08-31T14:47:09;1.90;;;1.70;;
5923;SDS011;2987;50.884;14.818;2023-08-31T14:49:38;1.87;;;1.67;;
5923;SDS011;2987;50.884;14.818;2023-08-31T14:52:06;4.33;;;2.10;;
5923;SDS011;2987;50.884;14.818;2023-08-31T14:54:33;1.80;;;1.70;;
5923;SDS011;2987;50.884;14.818;2023-08-31T14:56:59;4.83;;;2.30;;
5923;SDS011;2987;50.884;14.818;2023-08-31T14:59:26;3.40;;;2.07;;
5923;SDS011;2987;50.884;14.818;2023-08-31T15:01:51;3.37;;;2.03;;
5923;SDS011;2987;50.884;14.818;2023-08-31T15:04:17;4.90;;;1.70;;
5923;SDS011;2987;50.884;14.818;2023-08-31T15:06:43;4.70;;;2.00;;
5923;SDS011;2987;50.884;14.818;2023-08-31T15:09:09;3.17;;;1.70;;
5923;SDS011;2987;50.884;14.818;2023-08-31T15:11:36;2.20;;;1.93;;
5923;SDS011;2987;50.884;14.818;2023-08-31T15:14:04;3.23;;;2.03;;